Time,TemperatureF,DewpointF,PressureIn,WindDirection,WindDirectionDegrees,WindSpeedMPH,WindSpeedGustMPH,Humidity,HourlyPrecipIn,Conditions,Clouds,dailyrainin,SolarRadiationWatts/m^2,SoftwareType,DateUTC
2013-05-28 00:05:00,60.0,46.1,30.19,ENE,68,1.0,2.0,60,-99.99,,,0.00,0.00,VWS V14.01,2013-05-28 04:05:00,
2013-05-28 00:10:00,60.0,46.5,30.19,ENE,68,0.0,1.0,61,-99.99,,,0.00,0.00,VWS V14.01,2013-05-28 04:10:00,
2013-05-28 00:15:00,60.0,47.0,30.19,NE,45,3.0,3.0,62,-99.99,,,0.00,0.00,VWS V14.01,2013-05-28 04:15:00,
2013-05-28 00:20:00,59.0,46.4,30.18,NE,45,2.0,2.0,63,-99.99,,,0.00,0.00,VWS V14.01,2013-05-28 04:20:00,
2013-05-28 00:25:00,59.0,46.8,30.18,WNW,292,1.0,2.0,64,-99.99,,,0.00,0.00,VWS V14.01,2013-05-28 04:25:00,
2013-05-28 00:30:00,59.0,46.8,30.19,WNW,292,1.0,1.0,64,-99.99,,,0.00,0.00,VWS V14.01,2013-05-28 04:30:00,
2013-05-28 00:35:00,59.0,46.8,30.18,West,270,0.0,1.0,64,-99.99,,,0.00,0.00,VWS V14.01,2013-05-28 04:35:00,
2013-05-28 00:40:00,59.0,46.8,30.18,West,270,1.0,1.0,64,-99.99,,,0.00,0.00,VWS V14.01,2013-05-28 04:40:00,
2013-05-28 00:45:00,59.0,47.3,30.19,ESE,112,2.0,3.0,65,-99.99,,,0.00,0.00,VWS V14.01,2013-05-28 04:45:00,
2013-05-28 00:50:00,59.0,47.7,30.19,East,90,1.0,2.0,66,-99.99,,,0.00,0.00,VWS V14.01,2013-05-28 04:50:00,
2013-05-28 00:55:00,59.0,47.7,30.19,ENE,68,0.0,0.0,66,-99.99,,,0.00,0.00,VWS V14.01,2013-05-28 04:55:00,
2013-05-28 01:00:00,58.0,47.5,30.19,NE,45,3.0,3.0,68,-99.99,,,0.00,0.00,VWS V14.01,2013-05-28 05:00:00,
2013-05-28 01:05:00,58.0,47.1,30.19,NNE,22,1.0,4.0,67,-99.99,,,0.00,0.00,VWS V14.01,2013-05-28 05:05:00,
2013-05-28 01:10:00,58.0,47.5,30.19,NNE,22,1.0,1.0,68,-99.99,,,0.00,0.00,VWS V14.01,2013-05-28 05:10:00,
2013-05-28 01:15:00,58.0,47.5,30.19,NE,45,2.0,4.0,68,-99.99,,,0.00,0.00,VWS V14.01,2013-05-28 05:15:00,
2013-05-28 01:20:00,57.0,46.6,30.19,NE,45,2.0,3.0,68,-99.99,,,0.00,0.00,VWS V14.01,2013-05-28 05:20:00,
2013-05-28 01:25:00,57.0,46.9,30.18,NNE,22,4.0,6.0,69,-99.99,,,0.00,0.00,VWS V14.01,2013-05-28 05:25:00,
2013-05-28 01:30:00,57.0,46.9,30.18,NE,45,5.0,6.0,69,-99.99,,,0.00,0.00,VWS V14.01,2013-05-28 05:30:00,
2013-05-28 01:35:00,57.0,47.7,30.18,NNE,22,2.0,6.0,71,-99.99,,,0.00,0.00,VWS V14.01,2013-05-28 05:35:00,
2013-05-28 01:40:00,57.0,48.1,30.18,North,0,1.0,2.0,72,-99.99,,,0.00,0.00,VWS V14.01,2013-05-28 05:40:00,
2013-05-28 01:45:00,57.0,47.7,30.19,WNW,292,0.0,0.0,71,-99.99,,,0.00,0.00,VWS V14.01,2013-05-28 05:45:00,
2013-05-28 01:50:00,57.0,48.1,30.19,NE,45,3.0,4.0,72,-99.99,,,0.00,0.00,VWS V14.01,2013-05-28 05:50:00,
2013-05-28 01:55:00,57.0,48.4,30.19,NE,45,2.0,4.0,73,-99.99,,,0.00,0.00,VWS V14.01,2013-05-28 05:55:00,
2013-05-28 02:00:00,56.0,47.8,30.19,North,0,3.0,3.0,74,-99.99,,,0.00,0.00,VWS V14.01,2013-05-28 06:00:00,
2013-05-28 02:05:00,56.0,47.8,30.19,NE,45,2.0,3.0,74,-99.99,,,0.00,0.00,VWS V14.01,2013-05-28 06:05:00,
2013-05-28 02:10:00,56.0,47.8,30.19,NE,45,5.0,6.0,74,-99.99,,,0.00,0.00,VWS V14.01,2013-05-28 06:10:00,
2013-05-28 02:15:00,56.0,48.2,30.18,NNE,22,4.0,7.0,75,-99.99,,,0.00,0.00,VWS V14.01,2013-05-28 06:15:00,
2013-05-28 02:20:00,56.0,48.5,30.18,NNE,22,5.0,8.0,76,-99.99,,,0.00,0.00,VWS V14.01,2013-05-28 06:20:00,
2013-05-28 02:25:00,55.0,47.6,30.18,NNE,22,5.0,7.0,76,-99.99,,,0.00,0.00,VWS V14.01,2013-05-28 06:25:00,
2013-05-28 02:30:00,55.0,47.9,30.18,ENE,68,5.0,5.0,77,-99.99,,,0.00,0.00,VWS V14.01,2013-05-28 06:30:00,
2013-05-28 02:35:00,55.0,47.9,30.18,NE,45,1.0,2.0,77,-99.99,,,0.00,0.00,VWS V14.01,2013-05-28 06:35:00,
2013-05-28 02:40:00,55.0,47.9,30.18,NW,315,1.0,2.0,77,-99.99,,,0.00,0.00,VWS V14.01,2013-05-28 06:40:00,
2013-05-28 02:45:00,55.0,47.6,30.19,NNE,22,2.0,2.0,76,-99.99,,,0.00,0.00,VWS V14.01,2013-05-28 06:45:00,
2013-05-28 02:50:00,56.0,48.5,30.19,NNE,22,1.0,2.0,76,-99.99,,,0.00,0.00,VWS V14.01,2013-05-28 06:50:00,
2013-05-28 02:55:00,56.0,48.9,30.18,ENE,68,3.0,3.0,77,-99.99,,,0.00,0.00,VWS V14.01,2013-05-28 06:55:00,
2013-05-28 03:00:00,55.0,47.6,30.19,SE,135,3.0,3.0,76,-99.99,,,0.00,0.00,VWS V14.01,2013-05-28 07:00:00,
2013-05-28 03:05:00,55.0,48.3,30.19,ESE,112,2.0,3.0,78,-99.99,,,0.00,0.00,VWS V14.01,2013-05-28 07:05:00,
2013-05-28 03:10:00,55.0,48.6,30.18,NE,45,3.0,4.0,79,-99.99,,,0.00,0.00,VWS V14.01,2013-05-28 07:10:00,
2013-05-28 03:15:00,55.0,49.0,30.18,NE,45,3.0,3.0,80,-99.99,,,0.00,0.00,VWS V14.01,2013-05-28 07:15:00,
2013-05-28 03:20:00,54.0,48.0,30.18,NE,45,1.0,3.0,80,-99.99,,,0.00,0.00,VWS V14.01,2013-05-28 07:20:00,
2013-05-28 03:25:00,54.0,48.3,30.18,NE,45,2.0,3.0,81,-99.99,,,0.00,0.00,VWS V14.01,2013-05-28 07:25:00,
2013-05-28 03:30:00,54.0,48.6,30.17,East,90,2.0,3.0,82,-99.99,,,0.00,0.00,VWS V14.01,2013-05-28 07:30:00,
2013-05-28 03:35:00,54.0,48.3,30.17,NNE,22,2.0,3.0,81,-99.99,,,0.00,0.00,VWS V14.01,2013-05-28 07:35:00,
2013-05-28 03:40:00,54.0,48.0,30.16,North,0,4.0,5.0,80,-99.99,,,0.00,0.00,VWS V14.01,2013-05-28 07:40:00,
2013-05-28 03:45:00,54.0,48.0,30.16,North,0,3.0,8.0,80,-99.99,,,0.00,0.00,VWS V14.01,2013-05-28 07:45:00,
2013-05-28 03:50:00,54.0,48.0,30.16,North,0,4.0,7.0,80,-99.99,,,0.00,0.00,VWS V14.01,2013-05-28 07:50:00,
2013-05-28 03:55:00,54.0,47.6,30.17,NNW,338,1.0,1.0,79,-99.99,,,0.00,0.00,VWS V14.01,2013-05-28 07:55:00,
2013-05-28 04:00:00,54.0,48.0,30.16,NW,315,1.0,2.0,80,-99.99,,,0.00,0.00,VWS V14.01,2013-05-28 08:00:00,
2013-05-28 04:05:00,54.0,47.6,30.16,ENE,68,3.0,8.0,79,-99.99,,,0.00,0.00,VWS V14.01,2013-05-28 08:05:00,
2013-05-28 04:10:00,54.0,47.6,30.16,NNE,22,4.0,6.0,79,-99.99,,,0.00,0.00,VWS V14.01,2013-05-28 08:10:00,
2013-05-28 04:15:00,54.0,48.0,30.16,North,0,3.0,7.0,80,-99.99,,,0.00,0.00,VWS V14.01,2013-05-28 08:15:00,
2013-05-28 04:20:00,54.0,48.6,30.17,NE,45,4.0,4.0,82,-99.99,,,0.00,0.00,VWS V14.01,2013-05-28 08:20:00,
2013-05-28 04:25:00,54.0,49.0,30.16,NNE,22,2.0,5.0,83,-99.99,,,0.00,0.00,VWS V14.01,2013-05-28 08:25:00,
2013-05-28 04:30:00,54.0,49.0,30.16,NNE,22,2.0,4.0,83,-99.99,,,0.00,0.00,VWS V14.01,2013-05-28 08:30:00,
2013-05-28 04:35:00,54.0,49.0,30.17,NE,45,3.0,3.0,83,-99.99,,,0.00,0.00,VWS V14.01,2013-05-28 08:35:00,
2013-05-28 04:40:00,54.0,49.0,30.17,NNE,22,1.0,4.0,83,-99.99,,,0.00,0.00,VWS V14.01,2013-05-28 08:40:00,
2013-05-28 04:45:00,54.0,49.3,30.17,ENE,68,2.0,4.0,84,-99.99,,,0.00,0.00,VWS V14.01,2013-05-28 08:45:00,
2013-05-28 04:50:00,54.0,49.3,30.17,ENE,68,4.0,5.0,84,-99.99,,,0.00,0.00,VWS V14.01,2013-05-28 08:50:00,
2013-05-28 04:55:00,53.0,48.6,30.18,North,0,2.0,4.0,85,-99.99,,,0.00,0.00,VWS V14.01,2013-05-28 08:55:00,
2013-05-28 05:00:00,53.0,48.9,30.17,NNE,22,2.0,9.0,86,-99.99,,,0.00,0.00,VWS V14.01,2013-05-28 09:00:00,
2013-05-28 05:05:00,53.0,48.9,30.17,WNW,292,4.0,5.0,86,-99.99,,,0.00,0.00,VWS V14.01,2013-05-28 09:05:00,
2013-05-28 05:10:00,53.0,48.6,30.16,NE,45,5.0,6.0,85,-99.99,,,0.00,0.00,VWS V14.01,2013-05-28 09:10:00,
2013-05-28 05:15:00,54.0,49.3,30.16,North,0,4.0,4.0,84,-99.99,,,0.00,0.00,VWS V14.01,2013-05-28 09:15:00,
2013-05-28 05:20:00,54.0,49.0,30.16,North,0,12.0,12.0,83,-99.99,,,0.00,0.00,VWS V14.01,2013-05-28 09:20:00,
2013-05-28 05:25:00,54.0,48.3,30.16,NNE,22,5.0,9.0,81,-99.99,,,0.00,0.00,VWS V14.01,2013-05-28 09:25:00,
2013-05-28 05:30:00,54.0,48.0,30.16,WNW,292,5.0,7.0,80,-99.99,,,0.00,0.00,VWS V14.01,2013-05-28 09:30:00,
2013-05-28 05:35:00,54.0,48.0,30.17,NE,45,3.0,4.0,80,-99.99,,,0.00,0.00,VWS V14.01,2013-05-28 09:35:00,
2013-05-28 05:40:00,54.0,48.0,30.16,NE,45,3.0,3.0,80,-99.99,,,0.00,0.00,VWS V14.01,2013-05-28 09:40:00,
2013-05-28 05:45:00,54.0,48.0,30.16,North,0,6.0,6.0,80,-99.99,,,0.00,0.00,VWS V14.01,2013-05-28 09:45:00,
2013-05-28 05:50:00,54.0,48.3,30.17,NNW,338,4.0,4.0,81,-99.99,,,0.00,10.00,VWS V14.01,2013-05-28 09:50:00,
2013-05-28 05:55:00,54.0,48.3,30.17,North,0,2.0,4.0,81,-99.99,,,0.00,10.00,VWS V14.01,2013-05-28 09:55:00,
2013-05-28 06:00:00,53.0,47.7,30.17,NNE,22,2.0,3.0,82,-99.99,,,0.00,10.00,VWS V14.01,2013-05-28 10:00:00,
2013-05-28 06:05:00,53.0,47.7,30.17,NNW,338,2.0,3.0,82,-99.99,,,0.00,10.00,VWS V14.01,2013-05-28 10:05:00,
2013-05-28 06:10:00,53.0,48.0,30.16,NNE,22,3.0,5.0,83,-99.99,,,0.00,20.00,VWS V14.01,2013-05-28 10:10:00,
2013-05-28 06:15:00,53.0,48.3,30.16,ENE,68,2.0,2.0,84,-99.99,,,0.00,20.00,VWS V14.01,2013-05-28 10:15:00,
2013-05-28 06:20:00,53.0,48.3,30.16,North,0,2.0,4.0,84,-99.99,,,0.00,20.00,VWS V14.01,2013-05-28 10:20:00,
2013-05-28 06:25:00,53.0,48.3,30.16,North,0,3.0,4.0,84,-99.99,,,0.00,20.00,VWS V14.01,2013-05-28 10:25:00,
2013-05-28 06:30:00,53.0,48.3,30.17,NE,45,2.0,3.0,84,-99.99,,,0.00,20.00,VWS V14.01,2013-05-28 10:30:00,
2013-05-28 06:35:00,53.0,48.3,30.16,NNE,22,4.0,6.0,84,-99.99,,,0.00,20.00,VWS V14.01,2013-05-28 10:35:00,
2013-05-28 06:40:00,53.0,48.6,30.16,NE,45,2.0,7.0,85,-99.99,,,0.00,30.00,VWS V14.01,2013-05-28 10:40:00,
2013-05-28 06:45:00,53.0,48.6,30.16,NNE,22,3.0,4.0,85,-99.99,,,0.00,30.00,VWS V14.01,2013-05-28 10:45:00,
2013-05-28 06:50:00,53.0,48.6,30.16,NNE,22,5.0,6.0,85,-99.99,,,0.00,30.00,VWS V14.01,2013-05-28 10:50:00,
2013-05-28 06:55:00,53.0,48.9,30.16,NNE,22,3.0,4.0,86,-99.99,,,0.00,30.00,VWS V14.01,2013-05-28 10:55:00,
2013-05-28 07:00:00,53.0,49.2,30.16,NE,45,2.0,3.0,87,-99.99,,,0.00,40.00,VWS V14.01,2013-05-28 11:00:00,
2013-05-28 07:05:00,53.0,49.2,30.17,NE,45,2.0,4.0,87,-99.99,,,0.00,40.00,VWS V14.01,2013-05-28 11:05:00,
2013-05-28 07:10:00,53.0,49.2,30.17,North,0,1.0,4.0,87,-99.99,,,0.00,40.00,VWS V14.01,2013-05-28 11:10:00,
2013-05-28 07:15:00,54.0,50.2,30.17,NE,45,2.0,3.0,87,-99.99,,,0.00,40.00,VWS V14.01,2013-05-28 11:15:00,
2013-05-28 07:20:00,53.0,49.2,30.17,NE,45,3.0,3.0,87,-99.99,,,0.00,40.00,VWS V14.01,2013-05-28 11:20:00,
2013-05-28 07:25:00,53.0,49.2,30.17,NNW,338,2.0,4.0,87,-99.99,,,0.00,50.00,VWS V14.01,2013-05-28 11:25:00,
2013-05-28 07:30:00,53.0,49.2,30.18,NNE,22,3.0,3.0,87,-99.99,,,0.00,50.00,VWS V14.01,2013-05-28 11:30:00,
2013-05-28 07:35:00,54.0,50.2,30.18,NE,45,1.0,3.0,87,-99.99,,,0.00,40.00,VWS V14.01,2013-05-28 11:35:00,
2013-05-28 07:40:00,54.0,50.2,30.18,NNW,338,2.0,2.0,87,-99.99,,,0.00,40.00,VWS V14.01,2013-05-28 11:40:00,
2013-05-28 07:45:00,54.0,50.2,30.19,WNW,292,1.0,2.0,87,-99.99,,,0.00,40.00,VWS V14.01,2013-05-28 11:45:00,
2013-05-28 07:50:00,54.0,49.9,30.19,NNW,338,1.0,2.0,86,-99.99,,,0.00,40.00,VWS V14.01,2013-05-28 11:50:00,
2013-05-28 07:55:00,54.0,49.9,30.19,NE,45,1.0,3.0,86,-99.99,,,0.00,50.00,VWS V14.01,2013-05-28 11:55:00,
2013-05-28 08:00:00,54.0,49.9,30.18,NE,45,2.0,3.0,86,-99.99,,,0.00,50.00,VWS V14.01,2013-05-28 12:00:00,
2013-05-28 08:05:00,54.0,49.9,30.19,NE,45,3.0,4.0,86,-99.99,,,0.00,50.00,VWS V14.01,2013-05-28 12:05:00,
2013-05-28 08:10:00,54.0,49.9,30.19,NNE,22,3.0,4.0,86,-99.99,,,0.00,50.00,VWS V14.01,2013-05-28 12:10:00,
2013-05-28 08:15:00,54.0,50.2,30.19,ENE,68,2.0,3.0,87,-99.99,,,0.00,50.00,VWS V14.01,2013-05-28 12:15:00,
2013-05-28 08:20:00,54.0,50.5,30.19,NNE,22,1.0,1.0,88,-99.99,,,0.00,40.00,VWS V14.01,2013-05-28 12:20:00,
2013-05-28 08:25:00,54.0,50.5,30.19,NE,45,3.0,3.0,88,-99.99,,,0.00,40.00,VWS V14.01,2013-05-28 12:25:00,
2013-05-28 08:30:00,54.0,50.8,30.19,NE,45,2.0,3.0,89,-99.99,,,0.00,40.00,VWS V14.01,2013-05-28 12:30:00,
2013-05-28 08:35:00,54.0,51.1,30.19,NE,45,1.0,2.0,90,-99.99,,,0.00,40.00,VWS V14.01,2013-05-28 12:35:00,
2013-05-28 08:40:00,54.0,51.4,30.19,NE,45,4.0,4.0,91,-99.99,,,0.01,50.00,VWS V14.01,2013-05-28 12:40:00,
2013-05-28 08:45:00,54.0,51.7,30.19,North,0,2.0,2.0,92,-99.99,,,0.01,50.00,VWS V14.01,2013-05-28 12:45:00,
2013-05-28 08:50:00,54.0,52.0,30.19,NNE,22,2.0,4.0,93,-99.99,,,0.02,50.00,VWS V14.01,2013-05-28 12:50:00,
2013-05-28 08:55:00,54.0,52.0,30.19,NNE,22,3.0,5.0,93,-99.99,,,0.02,50.00,VWS V14.01,2013-05-28 12:55:00,
2013-05-28 09:00:00,54.0,52.3,30.18,NE,45,6.0,7.0,94,-99.99,,,0.02,50.00,VWS V14.01,2013-05-28 13:00:00,
2013-05-28 09:05:00,53.0,51.6,30.17,NE,45,5.0,7.0,95,-99.99,,,0.02,70.00,VWS V14.01,2013-05-28 13:05:00,
2013-05-28 09:10:00,53.0,51.9,30.17,North,0,5.0,8.0,96,-99.99,,,0.02,70.00,VWS V14.01,2013-05-28 13:10:00,
2013-05-28 09:15:00,53.0,52.2,30.17,NE,45,6.0,8.0,97,-99.99,,,0.03,80.00,VWS V14.01,2013-05-28 13:15:00,
2013-05-28 09:20:00,53.0,52.2,30.16,NNE,22,4.0,11.0,97,-99.99,,,0.04,100.00,VWS V14.01,2013-05-28 13:20:00,
2013-05-28 09:25:00,53.0,52.2,30.17,ENE,68,3.0,6.0,97,-99.99,,,0.04,100.00,VWS V14.01,2013-05-28 13:25:00,
2013-05-28 09:30:00,54.0,53.2,30.16,NE,45,6.0,8.0,97,-99.99,,,0.04,90.00,VWS V14.01,2013-05-28 13:30:00,
2013-05-28 09:35:00,54.0,53.2,30.17,NNE,22,5.0,8.0,97,-99.99,,,0.04,100.00,VWS V14.01,2013-05-28 13:35:00,
2013-05-28 09:40:00,54.0,52.9,30.17,NE,45,4.0,7.0,96,-99.99,,,0.05,70.00,VWS V14.01,2013-05-28 13:40:00,
2013-05-28 09:45:00,54.0,52.9,30.17,North,0,4.0,7.0,96,-99.99,,,0.05,50.00,VWS V14.01,2013-05-28 13:45:00,
2013-05-28 09:50:00,55.0,53.9,30.17,North,0,3.0,5.0,96,-99.99,,,0.06,60.00,VWS V14.01,2013-05-28 13:50:00,
2013-05-28 09:55:00,55.0,53.9,30.17,NNE,22,4.0,6.0,96,-99.99,,,0.06,70.00,VWS V14.01,2013-05-28 13:55:00,
2013-05-28 10:00:00,55.0,54.2,30.17,NNE,22,3.0,4.0,97,-99.99,,,0.07,80.00,VWS V14.01,2013-05-28 14:00:00,
2013-05-28 10:05:00,55.0,54.2,30.16,North,0,5.0,6.0,97,-99.99,,,0.07,90.00,VWS V14.01,2013-05-28 14:05:00,
2013-05-28 10:10:00,55.0,54.2,30.17,NE,45,4.0,7.0,97,-99.99,,,0.08,70.00,VWS V14.01,2013-05-28 14:10:00,
2013-05-28 10:15:00,55.0,54.2,30.17,NW,315,2.0,7.0,97,-99.99,,,0.08,80.00,VWS V14.01,2013-05-28 14:15:00,
2013-05-28 10:20:00,55.0,54.2,30.16,NE,45,4.0,7.0,97,-99.99,,,0.08,50.00,VWS V14.01,2013-05-28 14:20:00,
2013-05-28 10:25:00,55.0,54.2,30.16,ENE,68,2.0,4.0,97,-99.99,,,0.08,70.00,VWS V14.01,2013-05-28 14:25:00,
2013-05-28 10:30:00,55.0,54.5,30.16,NNE,22,4.0,6.0,98,-99.99,,,0.09,80.00,VWS V14.01,2013-05-28 14:30:00,
2013-05-28 10:35:00,55.0,54.5,30.16,NNW,338,3.0,6.0,98,-99.99,,,0.10,50.00,VWS V14.01,2013-05-28 14:35:00,
2013-05-28 10:40:00,55.0,54.5,30.16,NNE,22,4.0,6.0,98,-99.99,,,0.10,30.00,VWS V14.01,2013-05-28 14:40:00,
2013-05-28 10:45:00,55.0,54.5,30.16,North,0,6.0,8.0,98,-99.99,,,0.12,70.00,VWS V14.01,2013-05-28 14:45:00,
2013-05-28 10:50:00,55.0,54.5,30.15,NE,45,4.0,7.0,98,-99.99,,,0.14,50.00,VWS V14.01,2013-05-28 14:50:00,
2013-05-28 10:55:00,55.0,54.5,30.15,NNE,22,4.0,5.0,98,-99.99,,,0.14,40.00,VWS V14.01,2013-05-28 14:55:00,
2013-05-28 11:00:00,55.0,54.7,30.14,NNE,22,7.0,8.0,99,-99.99,,,0.15,40.00,VWS V14.01,2013-05-28 15:00:00,
2013-05-28 11:05:00,55.0,54.7,30.14,NNE,22,3.0,6.0,99,-99.99,,,0.16,70.00,VWS V14.01,2013-05-28 15:05:00,
2013-05-28 11:10:00,55.0,54.7,30.14,NNE,22,6.0,7.0,99,-99.99,,,0.16,80.00,VWS V14.01,2013-05-28 15:10:00,
2013-05-28 11:15:00,55.0,55.0,30.14,NNE,22,4.0,8.0,100,-99.99,,,0.16,50.00,VWS V14.01,2013-05-28 15:15:00,
2013-05-28 11:20:00,55.0,55.0,30.14,North,0,6.0,9.0,100,-99.99,,,0.16,20.00,VWS V14.01,2013-05-28 15:20:00,
2013-05-28 11:25:00,55.0,55.0,30.14,NNE,22,6.0,8.0,100,-99.99,,,0.17,20.00,VWS V14.01,2013-05-28 15:25:00,
2013-05-28 11:30:00,55.0,55.0,30.15,NW,315,4.0,7.0,100,-99.99,,,0.17,30.00,VWS V14.01,2013-05-28 15:30:00,
2013-05-28 11:35:00,55.0,55.0,30.14,North,0,4.0,7.0,100,-99.99,,,0.18,20.00,VWS V14.01,2013-05-28 15:35:00,
2013-05-28 11:40:00,55.0,55.0,30.14,North,0,5.0,6.0,100,-99.99,,,0.20,20.00,VWS V14.01,2013-05-28 15:40:00,
2013-05-28 11:45:00,55.0,55.0,30.14,NE,45,2.0,5.0,100,-99.99,,,0.20,40.00,VWS V14.01,2013-05-28 15:45:00,
2013-05-28 11:50:00,56.0,56.0,30.14,NE,45,2.0,4.0,100,-99.99,,,0.20,50.00,VWS V14.01,2013-05-28 15:50:00,
2013-05-28 11:55:00,56.0,56.0,30.14,NE,45,4.0,4.0,100,-99.99,,,0.20,60.00,VWS V14.01,2013-05-28 15:55:00,
2013-05-28 12:00:00,56.0,56.0,30.14,North,0,5.0,6.0,100,-99.99,,,0.21,60.00,VWS V14.01,2013-05-28 16:00:00,
2013-05-28 12:05:00,56.0,56.0,30.14,NE,45,2.0,4.0,100,-99.99,,,0.22,60.00,VWS V14.01,2013-05-28 16:05:00,
2013-05-28 12:10:00,56.0,56.0,30.14,NE,45,3.0,4.0,100,-99.99,,,0.22,80.00,VWS V14.01,2013-05-28 16:10:00,
2013-05-28 12:15:00,56.0,56.0,30.14,North,0,1.0,3.0,100,-99.99,,,0.22,40.00,VWS V14.01,2013-05-28 16:15:00,
2013-05-28 12:20:00,56.0,56.0,30.14,NE,45,1.0,2.0,100,-99.99,,,0.22,40.00,VWS V14.01,2013-05-28 16:20:00,
2013-05-28 12:25:00,56.0,56.0,30.14,NNE,22,1.0,3.0,100,-99.99,,,0.22,80.00,VWS V14.01,2013-05-28 16:25:00,
2013-05-28 12:30:00,56.0,56.0,30.14,NE,45,4.0,4.0,100,-99.99,,,0.22,60.00,VWS V14.01,2013-05-28 16:30:00,
2013-05-28 12:35:00,56.0,56.0,30.13,NE,45,3.0,4.0,100,-99.99,,,0.22,80.00,VWS V14.01,2013-05-28 16:35:00,
2013-05-28 12:40:00,56.0,56.0,30.14,NNW,338,1.0,3.0,100,-99.99,,,0.22,70.00,VWS V14.01,2013-05-28 16:40:00,
2013-05-28 12:45:00,57.0,57.0,30.14,NNW,338,3.0,4.0,100,-99.99,,,0.23,90.00,VWS V14.01,2013-05-28 16:45:00,
2013-05-28 12:50:00,57.0,57.0,30.14,NW,315,3.0,4.0,100,-99.99,,,0.23,90.00,VWS V14.01,2013-05-28 16:50:00,
2013-05-28 12:55:00,57.0,57.0,30.13,NNW,338,2.0,3.0,100,-99.99,,,0.23,80.00,VWS V14.01,2013-05-28 16:55:00,
2013-05-28 13:00:00,57.0,57.0,30.13,NNE,22,3.0,4.0,100,-99.99,,,0.23,80.00,VWS V14.01,2013-05-28 17:00:00,
2013-05-28 13:05:00,57.0,57.0,30.13,NE,45,3.0,4.0,100,-99.99,,,0.23,80.00,VWS V14.01,2013-05-28 17:05:00,
2013-05-28 13:10:00,57.0,57.0,30.13,ENE,68,2.0,3.0,100,-99.99,,,0.24,60.00,VWS V14.01,2013-05-28 17:10:00,
2013-05-28 13:15:00,58.0,58.0,30.13,SE,135,1.0,3.0,100,-99.99,,,0.24,60.00,VWS V14.01,2013-05-28 17:15:00,
2013-05-28 13:20:00,58.0,58.0,30.13,North,0,0.0,1.0,100,-99.99,,,0.24,50.00,VWS V14.01,2013-05-28 17:20:00,
2013-05-28 13:25:00,58.0,58.0,30.14,WSW,248,3.0,3.0,100,-99.99,,,0.24,50.00,VWS V14.01,2013-05-28 17:25:00,
2013-05-28 13:30:00,58.0,58.0,30.14,North,0,2.0,2.0,100,-99.99,,,0.24,60.00,VWS V14.01,2013-05-28 17:30:00,
2013-05-28 13:35:00,58.0,58.0,30.14,SSW,202,1.0,3.0,100,-99.99,,,0.24,40.00,VWS V14.01,2013-05-28 17:35:00,
2013-05-28 13:40:00,57.0,57.0,30.14,NW,315,0.0,2.0,100,-99.99,,,0.24,50.00,VWS V14.01,2013-05-28 17:40:00,
2013-05-28 13:45:00,58.0,58.0,30.14,ESE,112,1.0,4.0,100,-99.99,,,0.24,40.00,VWS V14.01,2013-05-28 17:45:00,
2013-05-28 13:50:00,58.0,58.0,30.14,NNE,22,0.0,0.0,100,-99.99,,,0.24,40.00,VWS V14.01,2013-05-28 17:50:00,
2013-05-28 13:55:00,58.0,58.0,30.14,East,90,2.0,3.0,100,-99.99,,,0.24,40.00,VWS V14.01,2013-05-28 17:55:00,
2013-05-28 14:00:00,58.0,58.0,30.14,ESE,112,1.0,3.0,100,-99.99,,,0.24,60.00,VWS V14.01,2013-05-28 18:00:00,
2013-05-28 14:05:00,58.0,58.0,30.14,ESE,112,2.0,2.0,100,-99.99,,,0.24,50.00,VWS V14.01,2013-05-28 18:05:00,
2013-05-28 14:10:00,58.0,58.0,30.14,SE,135,0.0,1.0,100,-99.99,,,0.24,50.00,VWS V14.01,2013-05-28 18:10:00,
2013-05-28 14:15:00,58.0,58.0,30.14,East,90,1.0,3.0,100,-99.99,,,0.24,50.00,VWS V14.01,2013-05-28 18:15:00,
2013-05-28 14:20:00,58.0,58.0,30.14,South,180,0.0,3.0,100,-99.99,,,0.24,50.00,VWS V14.01,2013-05-28 18:20:00,
2013-05-28 14:25:00,58.0,58.0,30.13,ESE,112,2.0,4.0,100,-99.99,,,0.24,50.00,VWS V14.01,2013-05-28 18:25:00,
2013-05-28 14:30:00,58.0,58.0,30.13,NNE,22,1.0,3.0,100,-99.99,,,0.24,40.00,VWS V14.01,2013-05-28 18:30:00,
2013-05-28 14:35:00,58.0,58.0,30.13,North,0,3.0,3.0,100,-99.99,,,0.24,40.00,VWS V14.01,2013-05-28 18:35:00,
2013-05-28 14:40:00,58.0,58.0,30.13,NNE,22,2.0,5.0,100,-99.99,,,0.24,40.00,VWS V14.01,2013-05-28 18:40:00,
2013-05-28 14:45:00,58.0,58.0,30.13,NE,45,2.0,3.0,100,-99.99,,,0.24,40.00,VWS V14.01,2013-05-28 18:45:00,
2013-05-28 14:50:00,58.0,58.0,30.13,NNE,22,2.0,4.0,100,-99.99,,,0.24,60.00,VWS V14.01,2013-05-28 18:50:00,
2013-05-28 14:55:00,58.0,58.0,30.13,NE,45,3.0,3.0,100,-99.99,,,0.24,50.00,VWS V14.01,2013-05-28 18:55:00,
2013-05-28 15:00:00,58.0,58.0,30.13,NNW,338,5.0,6.0,100,-99.99,,,0.24,70.00,VWS V14.01,2013-05-28 19:00:00,
2013-05-28 15:05:00,58.0,58.0,30.13,WNW,292,4.0,6.0,100,-99.99,,,0.24,50.00,VWS V14.01,2013-05-28 19:05:00,
2013-05-28 15:10:00,58.0,58.0,30.13,ENE,68,2.0,3.0,100,-99.99,,,0.24,60.00,VWS V14.01,2013-05-28 19:10:00,
2013-05-28 15:15:00,58.0,58.0,30.12,NNE,22,5.0,6.0,100,-99.99,,,0.24,60.00,VWS V14.01,2013-05-28 19:15:00,
2013-05-28 15:20:00,58.0,58.0,30.12,NE,45,3.0,4.0,100,-99.99,,,0.24,60.00,VWS V14.01,2013-05-28 19:20:00,
2013-05-28 15:25:00,58.0,58.0,30.12,West,270,2.0,4.0,100,-99.99,,,0.24,70.00,VWS V14.01,2013-05-28 19:25:00,
2013-05-28 15:30:00,58.0,58.0,30.12,NW,315,3.0,4.0,100,-99.99,,,0.24,80.00,VWS V14.01,2013-05-28 19:30:00,
2013-05-28 15:35:00,58.0,58.0,30.12,NE,45,5.0,7.0,100,-99.99,,,0.24,80.00,VWS V14.01,2013-05-28 19:35:00,
2013-05-28 15:40:00,58.0,58.0,30.12,NE,45,3.0,6.0,100,-99.99,,,0.24,70.00,VWS V14.01,2013-05-28 19:40:00,
2013-05-28 15:45:00,59.0,59.0,30.12,NNE,22,4.0,4.0,100,-99.99,,,0.24,80.00,VWS V14.01,2013-05-28 19:45:00,
2013-05-28 15:50:00,59.0,59.0,30.13,NNE,22,4.0,4.0,100,-99.99,,,0.24,90.00,VWS V14.01,2013-05-28 19:50:00,
2013-05-28 15:55:00,59.0,59.0,30.12,NNE,22,4.0,6.0,100,-99.99,,,0.24,110.00,VWS V14.01,2013-05-28 19:55:00,
2013-05-28 16:00:00,59.0,59.0,30.12,NNE,22,3.0,6.0,100,-99.99,,,0.24,100.00,VWS V14.01,2013-05-28 20:00:00,
2013-05-28 16:05:00,59.0,59.0,30.12,WNW,292,4.0,4.0,100,-99.99,,,0.24,60.00,VWS V14.01,2013-05-28 20:05:00,
2013-05-28 16:10:00,59.0,59.0,30.13,WNW,292,2.0,3.0,100,-99.99,,,0.24,70.00,VWS V14.01,2013-05-28 20:10:00,
2013-05-28 16:15:00,59.0,59.0,30.13,NNW,338,3.0,3.0,100,-99.99,,,0.24,80.00,VWS V14.01,2013-05-28 20:15:00,
2013-05-28 16:20:00,60.0,60.0,30.13,WNW,292,2.0,3.0,100,-99.99,,,0.24,80.00,VWS V14.01,2013-05-28 20:20:00,
2013-05-28 16:25:00,60.0,60.0,30.13,NE,45,2.0,4.0,100,-99.99,,,0.24,70.00,VWS V14.01,2013-05-28 20:25:00,
2013-05-28 16:30:00,60.0,60.0,30.13,NNW,338,1.0,2.0,100,-99.99,,,0.24,60.00,VWS V14.01,2013-05-28 20:30:00,
2013-05-28 16:35:00,60.0,59.7,30.13,NW,315,2.0,4.0,99,-99.99,,,0.24,60.00,VWS V14.01,2013-05-28 20:35:00,
2013-05-28 16:40:00,60.0,59.7,30.13,NE,45,2.0,3.0,99,-99.99,,,0.24,60.00,VWS V14.01,2013-05-28 20:40:00,
2013-05-28 16:45:00,60.0,59.7,30.13,NE,45,3.0,3.0,99,-99.99,,,0.24,50.00,VWS V14.01,2013-05-28 20:45:00,
2013-05-28 16:50:00,60.0,59.7,30.13,NE,45,3.0,3.0,99,-99.99,,,0.24,60.00,VWS V14.01,2013-05-28 20:50:00,
2013-05-28 16:55:00,60.0,59.7,30.13,NE,45,3.0,4.0,99,-99.99,,,0.24,50.00,VWS V14.01,2013-05-28 20:55:00,
2013-05-28 17:00:00,60.0,59.7,30.13,NE,45,3.0,5.0,99,-99.99,,,0.24,60.00,VWS V14.01,2013-05-28 21:00:00,
2013-05-28 17:05:00,60.0,59.7,30.12,NNE,22,3.0,4.0,99,-99.99,,,0.24,80.00,VWS V14.01,2013-05-28 21:05:00,
2013-05-28 17:10:00,60.0,59.7,30.12,NE,45,4.0,4.0,99,-99.99,,,0.24,60.00,VWS V14.01,2013-05-28 21:10:00,
2013-05-28 17:15:00,60.0,59.7,30.12,ENE,68,4.0,6.0,99,-99.99,,,0.24,40.00,VWS V14.01,2013-05-28 21:15:00,
2013-05-28 17:20:00,60.0,59.7,30.12,WNW,292,5.0,5.0,99,-99.99,,,0.24,30.00,VWS V14.01,2013-05-28 21:20:00,
2013-05-28 17:25:00,60.0,59.7,30.12,NE,45,4.0,5.0,99,-99.99,,,0.24,40.00,VWS V14.01,2013-05-28 21:25:00,
2013-05-28 17:30:00,60.0,59.7,30.11,ENE,68,3.0,6.0,99,-99.99,,,0.25,50.00,VWS V14.01,2013-05-28 21:30:00,
2013-05-28 17:35:00,60.0,60.0,30.11,ENE,68,3.0,5.0,100,-99.99,,,0.26,90.00,VWS V14.01,2013-05-28 21:35:00,
2013-05-28 17:40:00,60.0,60.0,30.11,NE,45,3.0,4.0,100,-99.99,,,0.26,120.00,VWS V14.01,2013-05-28 21:40:00,
2013-05-28 17:45:00,60.0,60.0,30.11,North,0,3.0,5.0,100,-99.99,,,0.26,130.00,VWS V14.01,2013-05-28 21:45:00,
2013-05-28 17:50:00,60.0,60.0,30.11,NNW,338,3.0,4.0,100,-99.99,,,0.26,130.00,VWS V14.01,2013-05-28 21:50:00,
2013-05-28 17:55:00,60.0,60.0,30.11,NW,315,2.0,4.0,100,-99.99,,,0.26,130.00,VWS V14.01,2013-05-28 21:55:00,
2013-05-28 18:00:00,61.0,61.0,30.11,NW,315,2.0,3.0,100,-99.99,,,0.26,90.00,VWS V14.01,2013-05-28 22:00:00,
2013-05-28 18:05:00,61.0,61.0,30.11,WNW,292,2.0,3.0,100,-99.99,,,0.26,50.00,VWS V14.01,2013-05-28 22:05:00,
2013-05-28 18:10:00,61.0,61.0,30.11,NNE,22,2.0,3.0,100,-99.99,,,0.26,50.00,VWS V14.01,2013-05-28 22:10:00,
2013-05-28 18:15:00,61.0,61.0,30.11,NE,45,4.0,4.0,100,-99.99,,,0.26,40.00,VWS V14.01,2013-05-28 22:15:00,
2013-05-28 18:20:00,61.0,61.0,30.11,NE,45,4.0,6.0,100,-99.99,,,0.26,40.00,VWS V14.01,2013-05-28 22:20:00,
2013-05-28 18:25:00,61.0,61.0,30.11,NNE,22,2.0,4.0,100,-99.99,,,0.26,40.00,VWS V14.01,2013-05-28 22:25:00,
2013-05-28 18:30:00,61.0,61.0,30.11,East,90,3.0,4.0,100,-99.99,,,0.26,40.00,VWS V14.01,2013-05-28 22:30:00,
2013-05-28 18:35:00,61.0,61.0,30.11,NE,45,2.0,4.0,100,-99.99,,,0.26,30.00,VWS V14.01,2013-05-28 22:35:00,
2013-05-28 18:40:00,61.0,61.0,30.11,NE,45,3.0,4.0,100,-99.99,,,0.26,30.00,VWS V14.01,2013-05-28 22:40:00,
2013-05-28 18:45:00,61.0,61.0,30.11,NNE,22,3.0,4.0,100,-99.99,,,0.26,30.00,VWS V14.01,2013-05-28 22:45:00,
2013-05-28 18:50:00,61.0,61.0,30.10,NE,45,5.0,5.0,100,-99.99,,,0.26,60.00,VWS V14.01,2013-05-28 22:50:00,
2013-05-28 18:55:00,61.0,61.0,30.09,NNE,22,4.0,5.0,100,-99.99,,,0.26,50.00,VWS V14.01,2013-05-28 22:55:00,
2013-05-28 19:00:00,61.0,61.0,30.09,NE,45,4.0,5.0,100,-99.99,,,0.26,30.00,VWS V14.01,2013-05-28 23:00:00,
2013-05-28 19:05:00,61.0,61.0,30.10,NNW,338,2.0,3.0,100,-99.99,,,0.26,30.00,VWS V14.01,2013-05-28 23:05:00,
2013-05-28 19:10:00,61.0,61.0,30.09,NW,315,2.0,3.0,100,-99.99,,,0.26,40.00,VWS V14.01,2013-05-28 23:10:00,
2013-05-28 19:15:00,61.0,61.0,30.09,NNE,22,4.0,4.0,100,-99.99,,,0.26,50.00,VWS V14.01,2013-05-28 23:15:00,
2013-05-28 19:20:00,61.0,61.0,30.10,NNE,22,3.0,6.0,100,-99.99,,,0.26,40.00,VWS V14.01,2013-05-28 23:20:00,
2013-05-28 19:25:00,61.0,61.0,30.09,NNE,22,4.0,4.0,100,-99.99,,,0.26,50.00,VWS V14.01,2013-05-28 23:25:00,
2013-05-28 19:30:00,61.0,61.0,30.09,NE,45,4.0,4.0,100,-99.99,,,0.26,40.00,VWS V14.01,2013-05-28 23:30:00,
2013-05-28 19:35:00,61.0,61.0,30.09,ENE,68,4.0,4.0,100,-99.99,,,0.26,40.00,VWS V14.01,2013-05-28 23:35:00,
2013-05-28 19:40:00,61.0,61.0,30.09,NNE,22,4.0,4.0,100,-99.99,,,0.26,40.00,VWS V14.01,2013-05-28 23:40:00,
2013-05-28 19:45:00,61.0,61.0,30.10,NNW,338,3.0,3.0,100,-99.99,,,0.26,50.00,VWS V14.01,2013-05-28 23:45:00,
2013-05-28 19:50:00,61.0,61.0,30.10,NE,45,3.0,5.0,100,-99.99,,,0.26,60.00,VWS V14.01,2013-05-28 23:50:00,
2013-05-28 19:55:00,61.0,61.0,30.10,NNW,338,2.0,5.0,100,-99.99,,,0.26,30.00,VWS V14.01,2013-05-28 23:55:00,
2013-05-28 20:00:00,61.0,61.0,30.10,NNW,338,1.0,1.0,100,-99.99,,,0.26,10.00,VWS V14.01,2013-05-29 00:00:00,
2013-05-28 20:05:00,61.0,61.0,30.10,NW,315,1.0,4.0,100,-99.99,,,0.26,10.00,VWS V14.01,2013-05-29 00:05:00,
2013-05-28 20:10:00,61.0,61.0,30.10,NW,315,3.0,4.0,100,-99.99,,,0.26,10.00,VWS V14.01,2013-05-29 00:10:00,
2013-05-28 20:15:00,61.0,61.0,30.10,NW,315,3.0,3.0,100,-99.99,,,0.26,10.00,VWS V14.01,2013-05-29 00:15:00,
2013-05-28 20:20:00,61.0,61.0,30.09,NE,45,2.0,3.0,100,-99.99,,,0.26,0.00,VWS V14.01,2013-05-29 00:20:00,
2013-05-28 20:25:00,61.0,61.0,30.09,NNE,22,4.0,5.0,100,-99.99,,,0.26,0.00,VWS V14.01,2013-05-29 00:25:00,
2013-05-28 20:30:00,61.0,61.0,30.10,NNE,22,3.0,4.0,100,-99.99,,,0.26,0.00,VWS V14.01,2013-05-29 00:30:00,
2013-05-28 20:35:00,61.0,61.0,30.09,NE,45,4.0,5.0,100,-99.99,,,0.26,0.00,VWS V14.01,2013-05-29 00:35:00,
2013-05-28 20:40:00,61.0,61.0,30.09,NE,45,5.0,7.0,100,-99.99,,,0.26,0.00,VWS V14.01,2013-05-29 00:40:00,
2013-05-28 20:45:00,61.0,61.0,30.09,NE,45,5.0,6.0,100,-99.99,,,0.26,0.00,VWS V14.01,2013-05-29 00:45:00,
2013-05-28 20:50:00,61.0,61.0,30.08,NE,45,3.0,5.0,100,-99.99,,,0.26,0.00,VWS V14.01,2013-05-29 00:50:00,
2013-05-28 20:55:00,60.0,60.0,30.08,NNE,22,6.0,7.0,100,-99.99,,,0.26,0.00,VWS V14.01,2013-05-29 00:55:00,
2013-05-28 21:00:00,61.0,61.0,30.08,NNE,22,4.0,9.0,100,-99.99,,,0.26,0.00,VWS V14.01,2013-05-29 01:00:00,
2013-05-28 21:05:00,61.0,61.0,30.07,North,0,4.0,9.0,100,-99.99,,,0.26,0.00,VWS V14.01,2013-05-29 01:05:00,
2013-05-28 21:10:00,61.0,61.0,30.08,NNE,22,5.0,10.0,100,-99.99,,,0.26,0.00,VWS V14.01,2013-05-29 01:10:00,
2013-05-28 21:15:00,61.0,61.0,30.07,NNE,22,7.0,10.0,100,-99.99,,,0.26,0.00,VWS V14.01,2013-05-29 01:15:00,
2013-05-28 21:20:00,61.0,61.0,30.07,NE,45,4.0,8.0,100,-99.99,,,0.26,0.00,VWS V14.01,2013-05-29 01:20:00,
2013-05-28 21:25:00,61.0,61.0,30.07,North,0,7.0,9.0,100,-99.99,,,0.26,0.00,VWS V14.01,2013-05-29 01:25:00,
2013-05-28 21:30:00,60.0,60.0,30.08,NNE,22,5.0,8.0,100,-99.99,,,0.26,0.00,VWS V14.01,2013-05-29 01:30:00,
2013-05-28 21:35:00,61.0,61.0,30.08,North,0,5.0,9.0,100,-99.99,,,0.26,0.00,VWS V14.01,2013-05-29 01:35:00,
2013-05-28 21:40:00,61.0,61.0,30.08,NNE,22,6.0,10.0,100,-99.99,,,0.26,0.00,VWS V14.01,2013-05-29 01:40:00,
2013-05-28 21:45:00,61.0,61.0,30.08,NE,45,4.0,4.0,100,-99.99,,,0.26,0.00,VWS V14.01,2013-05-29 01:45:00,
2013-05-28 21:50:00,60.0,60.0,30.08,North,0,3.0,6.0,100,-99.99,,,0.26,0.00,VWS V14.01,2013-05-29 01:50:00,
2013-05-28 21:55:00,60.0,60.0,30.08,NNE,22,5.0,6.0,100,-99.99,,,0.26,0.00,VWS V14.01,2013-05-29 01:55:00,
2013-05-28 22:00:00,60.0,60.0,30.08,NNE,22,3.0,9.0,100,-99.99,,,0.26,0.00,VWS V14.01,2013-05-29 02:00:00,
2013-05-28 22:05:00,60.0,60.0,30.08,NNW,338,3.0,5.0,100,-99.99,,,0.26,0.00,VWS V14.01,2013-05-29 02:05:00,
2013-05-28 22:10:00,60.0,60.0,30.08,North,0,7.0,7.0,100,-99.99,,,0.26,0.00,VWS V14.01,2013-05-29 02:10:00,
2013-05-28 22:15:00,60.0,60.0,30.07,North,0,3.0,5.0,100,-99.99,,,0.26,0.00,VWS V14.01,2013-05-29 02:15:00,
2013-05-28 22:20:00,60.0,60.0,30.08,NE,45,2.0,5.0,100,-99.99,,,0.26,0.00,VWS V14.01,2013-05-29 02:20:00,
2013-05-28 22:25:00,60.0,60.0,30.08,North,0,5.0,6.0,100,-99.99,,,0.26,0.00,VWS V14.01,2013-05-29 02:25:00,
2013-05-28 22:30:00,60.0,60.0,30.09,NNE,22,4.0,4.0,100,-99.99,,,0.26,0.00,VWS V14.01,2013-05-29 02:30:00,
2013-05-28 22:35:00,60.0,60.0,30.09,North,0,3.0,7.0,100,-99.99,,,0.26,0.00,VWS V14.01,2013-05-29 02:35:00,
2013-05-28 22:40:00,60.0,60.0,30.09,North,0,2.0,3.0,100,-99.99,,,0.26,0.00,VWS V14.01,2013-05-29 02:40:00,
2013-05-28 22:45:00,60.0,60.0,30.09,WNW,292,3.0,6.0,100,-99.99,,,0.26,0.00,VWS V14.01,2013-05-29 02:45:00,
2013-05-28 22:50:00,60.0,60.0,30.08,WNW,292,6.0,7.0,100,-99.99,,,0.26,0.00,VWS V14.01,2013-05-29 02:50:00,
2013-05-28 22:55:00,60.0,60.0,30.08,WNW,292,5.0,6.0,100,-99.99,,,0.26,0.00,VWS V14.01,2013-05-29 02:55:00,
2013-05-28 22:56:00,60.0,60.0,30.10,WNW,292,0.0,1.0,100,-99.99,,,0.26,0.00,VWS V14.01,2013-05-29 02:56:00,
2013-05-28 22:57:00,60.0,60.0,30.10,WNW,292,1.0,1.0,100,-99.99,,,0.26,0.00,VWS V14.01,2013-05-29 02:57:00,
2013-05-28 22:58:00,60.0,60.0,30.10,WNW,292,1.0,1.0,100,-99.99,,,0.26,0.00,VWS V14.01,2013-05-29 02:58:00,
2013-05-28 22:59:00,60.0,60.0,30.10,WNW,292,0.0,1.0,100,-99.99,,,0.26,0.00,VWS V14.01,2013-05-29 02:59:00,
2013-05-28 23:00:00,60.0,60.0,30.08,West,270,3.0,4.0,100,-99.99,,,0.26,0.00,VWS V14.01,2013-05-29 03:00:00,
2013-05-28 23:01:00,60.0,60.0,30.10,WNW,292,1.0,1.0,100,-99.99,,,0.26,0.00,VWS V14.01,2013-05-29 03:01:00,
2013-05-28 23:02:00,60.0,60.0,30.09,WNW,292,0.0,1.0,100,-99.99,,,0.26,0.00,VWS V14.01,2013-05-29 03:02:00,
2013-05-28 23:05:00,60.0,60.0,30.09,NNW,338,1.0,1.0,100,-99.99,,,0.26,0.00,VWS V14.01,2013-05-29 03:05:00,
2013-05-28 23:10:00,60.0,60.0,30.09,SE,135,3.0,3.0,100,-99.99,,,0.26,0.00,VWS V14.01,2013-05-29 03:10:00,
2013-05-28 23:15:00,60.0,60.0,30.09,WSW,248,2.0,3.0,100,-99.99,,,0.26,0.00,VWS V14.01,2013-05-29 03:15:00,
2013-05-28 23:20:00,60.0,60.0,30.09,WNW,292,1.0,2.0,100,-99.99,,,0.26,0.00,VWS V14.01,2013-05-29 03:20:00,
2013-05-28 23:25:00,60.0,60.0,30.09,NE,45,2.0,2.0,100,-99.99,,,0.26,0.00,VWS V14.01,2013-05-29 03:25:00,
2013-05-28 23:30:00,60.0,60.0,30.09,North,0,2.0,2.0,100,-99.99,,,0.26,0.00,VWS V14.01,2013-05-29 03:30:00,
2013-05-28 23:35:00,60.0,60.0,30.10,NE,45,1.0,1.0,100,-99.99,,,0.26,0.00,VWS V14.01,2013-05-29 03:35:00,
2013-05-28 23:40:00,60.0,60.0,30.09,NNE,22,1.0,2.0,100,-99.99,,,0.26,0.00,VWS V14.01,2013-05-29 03:40:00,
2013-05-28 23:45:00,60.0,60.0,30.10,ESE,112,2.0,2.0,100,-99.99,,,0.26,0.00,VWS V14.01,2013-05-29 03:45:00,
2013-05-28 23:50:00,60.0,60.0,30.10,ENE,68,1.0,2.0,100,-99.99,,,0.26,0.00,VWS V14.01,2013-05-29 03:50:00,
2013-05-28 23:55:00,60.0,60.0,30.10,ENE,68,1.0,3.0,100,-99.99,,,0.26,0.00,VWS V14.01,2013-05-29 03:55:00,